sensor_id;sensor_type;location;lat;lon;timestamp;P1;durP1;ratioP1;P2;durP2;ratioP2
75645;SDS011;64237;52.438;13.240;2023-05-10T00:01:05;8.10;;;2.88;;
75645;SDS011;64237;52.438;13.240;2023-05-10T00:03:30;7.28;;;2.70;;
75645;SDS011;64237;52.438;13.240;2023-05-10T00:05:56;6.70;;;2.92;;
75645;SDS011;64237;52.438;13.240;2023-05-10T00:08:21;7.32;;;3.03;;
75645;SDS011;64237;52.438;13.240;2023-05-10T00:10:47;8.20;;;2.90;;
75645;SDS011;64237;52.438;13.240;2023-05-10T00:13:13;9.85;;;3.30;;
75645;SDS011;64237;52.438;13.240;2023-05-10T00:15:38;6.80;;;2.72;;
75645;SDS011;64237;52.438;13.240;2023-05-10T00:18:05;6.10;;;2.80;;
75645;SDS011;64237;52.438;13.240;2023-05-10T00:20:30;5.68;;;2.88;;
75645;SDS011;64237;52.438;13.240;2023-05-10T00:22:55;7.85;;;3.13;;
75645;SDS011;64237;52.438;13.240;2023-05-10T00:25:21;9.85;;;3.35;;
75645;SDS011;64237;52.438;13.240;2023-05-10T00:27:47;9.05;;;3.15;;
75645;SDS011;64237;52.438;13.240;2023-05-10T00:30:12;6.85;;;3.13;;
75645;SDS011;64237;52.438;13.240;2023-05-10T00:32:38;6.60;;;2.60;;
75645;SDS011;64237;52.438;13.240;2023-05-10T00:35:03;7.22;;;2.90;;
75645;SDS011;64237;52.438;13.240;2023-05-10T00:37:29;7.00;;;3.00;;
75645;SDS011;64237;52.438;13.240;2023-05-10T00:39:54;6.20;;;2.80;;
75645;SDS011;64237;52.438;13.240;2023-05-10T00:42:20;7.78;;;3.03;;
75645;SDS011;64237;52.438;13.240;2023-05-10T00:44:45;6.05;;;3.10;;
75645;SDS011;64237;52.438;13.240;2023-05-10T00:47:11;6.63;;;2.78;;
75645;SDS011;64237;52.438;13.240;2023-05-10T00:49:37;6.85;;;3.15;;
75645;SDS011;64237;52.438;13.240;2023-05-10T00:52:02;7.30;;;3.38;;
75645;SDS011;64237;52.438;13.240;2023-05-10T00:54:28;10.60;;;3.40;;
75645;SDS011;64237;52.438;13.240;2023-05-10T00:56:54;8.30;;;3.50;;
75645;SDS011;64237;52.438;13.240;2023-05-10T00:59:21;7.43;;;3.00;;
75645;SDS011;64237;52.438;13.240;2023-05-10T01:01:47;7.15;;;3.05;;
75645;SDS011;64237;52.438;13.240;2023-05-10T01:04:13;7.80;;;3.25;;
75645;SDS011;64237;52.438;13.240;2023-05-10T01:06:42;8.10;;;3.17;;
75645;SDS011;64237;52.438;13.240;2023-05-10T01:09:07;9.13;;;3.60;;
75645;SDS011;64237;52.438;13.240;2023-05-10T01:11:34;8.27;;;3.33;;
75645;SDS011;64237;52.438;13.240;2023-05-10T01:14:01;8.02;;;3.10;;
75645;SDS011;64237;52.438;13.240;2023-05-10T01:16:27;7.15;;;3.35;;
75645;SDS011;64237;52.438;13.240;2023-05-10T01:18:57;7.22;;;3.50;;
75645;SDS011;64237;52.438;13.240;2023-05-10T01:32:21;8.00;;;3.38;;
75645;SDS011;64237;52.438;13.240;2023-05-10T01:35:10;8.48;;;3.33;;
75645;SDS011;64237;52.438;13.240;2023-05-10T01:37:44;8.02;;;3.20;;
75645;SDS011;64237;52.438;13.240;2023-05-10T01:43:26;7.00;;;3.22;;
75645;SDS011;64237;52.438;13.240;2023-05-10T01:46:07;9.68;;;3.53;;
75645;SDS011;64237;52.438;13.240;2023-05-10T01:48:37;7.68;;;3.55;;
75645;SDS011;64237;52.438;13.240;2023-05-10T01:51:11;7.88;;;3.42;;
75645;SDS011;64237;52.438;13.240;2023-05-10T01:53:44;7.05;;;3.17;;
75645;SDS011;64237;52.438;13.240;2023-05-10T01:56:13;8.80;;;3.85;;
75645;SDS011;64237;52.438;13.240;2023-05-10T01:58:39;7.68;;;3.50;;
75645;SDS011;64237;52.438;13.240;2023-05-10T02:01:09;9.32;;;3.80;;
75645;SDS011;64237;52.438;13.240;2023-05-10T02:03:35;6.68;;;3.17;;
75645;SDS011;64237;52.438;13.240;2023-05-10T02:06:03;7.55;;;3.55;;
75645;SDS011;64237;52.438;13.240;2023-05-10T02:08:30;8.35;;;3.88;;
75645;SDS011;64237;52.438;13.240;2023-05-10T02:10:58;10.00;;;3.47;;
75645;SDS011;64237;52.438;13.240;2023-05-10T02:13:25;9.32;;;3.78;;
75645;SDS011;64237;52.438;13.240;2023-05-10T02:15:52;7.82;;;3.33;;
75645;SDS011;64237;52.438;13.240;2023-05-10T02:18:19;8.80;;;3.60;;
75645;SDS011;64237;52.438;13.240;2023-05-10T02:20:46;10.40;;;3.25;;
75645;SDS011;64237;52.438;13.240;2023-05-10T02:23:13;7.78;;;3.60;;
75645;SDS011;64237;52.438;13.240;2023-05-10T02:28:08;7.07;;;3.10;;
75645;SDS011;64237;52.438;13.240;2023-05-10T02:30:35;7.47;;;3.33;;
75645;SDS011;64237;52.438;13.240;2023-05-10T02:33:02;7.60;;;3.17;;
75645;SDS011;64237;52.438;13.240;2023-05-10T02:35:30;8.45;;;3.40;;
75645;SDS011;64237;52.438;13.240;2023-05-10T02:37:58;7.88;;;3.33;;
75645;SDS011;64237;52.438;13.240;2023-05-10T02:40:25;9.70;;;3.60;;
75645;SDS011;64237;52.438;13.240;2023-05-10T02:42:52;6.82;;;3.60;;
75645;SDS011;64237;52.438;13.240;2023-05-10T02:47:48;10.68;;;3.80;;
75645;SDS011;64237;52.438;13.240;2023-05-10T02:50:13;7.20;;;3.15;;
75645;SDS011;64237;52.438;13.240;2023-05-10T02:52:40;8.98;;;3.40;;
75645;SDS011;64237;52.438;13.240;2023-05-10T02:55:09;10.30;;;3.60;;
75645;SDS011;64237;52.438;13.240;2023-05-10T02:57:39;9.20;;;3.47;;
75645;SDS011;64237;52.438;13.240;2023-05-10T03:00:08;8.00;;;3.47;;
75645;SDS011;64237;52.438;13.240;2023-05-10T03:02:33;8.40;;;3.75;;
75645;SDS011;64237;52.438;13.240;2023-05-10T03:04:59;8.60;;;3.70;;
75645;SDS011;64237;52.438;13.240;2023-05-10T03:07:24;7.57;;;3.90;;
75645;SDS011;64237;52.438;13.240;2023-05-10T03:09:50;7.45;;;3.38;;
75645;SDS011;64237;52.438;13.240;2023-05-10T03:12:28;7.75;;;3.63;;
75645;SDS011;64237;52.438;13.240;2023-05-10T03:15:18;7.65;;;3.40;;
75645;SDS011;64237;52.438;13.240;2023-05-10T03:20:19;9.57;;;4.10;;
75645;SDS011;64237;52.438;13.240;2023-05-10T03:22:50;8.25;;;3.25;;
75645;SDS011;64237;52.438;13.240;2023-05-10T03:25:18;7.57;;;3.63;;
75645;SDS011;64237;52.438;13.240;2023-05-10T03:27:46;8.95;;;3.90;;
75645;SDS011;64237;52.438;13.240;2023-05-10T03:30:12;8.95;;;3.95;;
75645;SDS011;64237;52.438;13.240;2023-05-10T03:32:40;9.15;;;4.22;;
75645;SDS011;64237;52.438;13.240;2023-05-10T03:35:09;10.32;;;3.75;;
75645;SDS011;64237;52.438;13.240;2023-05-10T03:37:37;7.40;;;3.53;;
75645;SDS011;64237;52.438;13.240;2023-05-10T03:40:02;7.05;;;3.22;;
75645;SDS011;64237;52.438;13.240;2023-05-10T03:42:28;8.73;;;4.00;;
75645;SDS011;64237;52.438;13.240;2023-05-10T03:44:54;8.20;;;3.13;;
75645;SDS011;64237;52.438;13.240;2023-05-10T03:47:19;7.10;;;3.58;;
75645;SDS011;64237;52.438;13.240;2023-05-10T03:49:44;7.68;;;3.28;;
75645;SDS011;64237;52.438;13.240;2023-05-10T03:52:10;9.02;;;3.53;;
75645;SDS011;64237;52.438;13.240;2023-05-10T03:54:35;7.85;;;3.42;;
75645;SDS011;64237;52.438;13.240;2023-05-10T03:57:01;8.45;;;3.30;;
75645;SDS011;64237;52.438;13.240;2023-05-10T03:59:27;10.40;;;3.72;;
75645;SDS011;64237;52.438;13.240;2023-05-10T04:01:53;7.68;;;3.42;;
75645;SDS011;64237;52.438;13.240;2023-05-10T04:04:18;8.05;;;3.28;;
75645;SDS011;64237;52.438;13.240;2023-05-10T04:06:45;9.60;;;3.38;;
75645;SDS011;64237;52.438;13.240;2023-05-10T04:09:11;10.05;;;3.35;;
75645;SDS011;64237;52.438;13.240;2023-05-10T04:11:36;8.07;;;3.70;;
75645;SDS011;64237;52.438;13.240;2023-05-10T04:14:01;7.60;;;3.55;;
75645;SDS011;64237;52.438;13.240;2023-05-10T04:16:27;7.47;;;3.38;;
75645;SDS011;64237;52.438;13.240;2023-05-10T04:18:52;7.00;;;3.15;;
75645;SDS011;64237;52.438;13.240;2023-05-10T04:21:17;6.53;;;3.10;;
75645;SDS011;64237;52.438;13.240;2023-05-10T04:23:43;6.72;;;3.00;;
75645;SDS011;64237;52.438;13.240;2023-05-10T04:26:08;7.88;;;3.80;;
75645;SDS011;64237;52.438;13.240;2023-05-10T04:28:34;7.50;;;3.13;;
75645;SDS011;64237;52.438;13.240;2023-05-10T04:31:06;7.70;;;3.03;;
75645;SDS011;64237;52.438;13.240;2023-05-10T04:33:32;8.23;;;3.33;;
75645;SDS011;64237;52.438;13.240;2023-05-10T04:35:58;7.38;;;3.30;;
75645;SDS011;64237;52.438;13.240;2023-05-10T04:38:23;6.78;;;2.83;;
75645;SDS011;64237;52.438;13.240;2023-05-10T04:40:48;9.73;;;3.15;;
75645;SDS011;64237;52.438;13.240;2023-05-10T04:43:14;6.88;;;3.05;;
75645;SDS011;64237;52.438;13.240;2023-05-10T04:45:39;7.03;;;3.15;;
75645;SDS011;64237;52.438;13.240;2023-05-10T04:48:05;8.30;;;3.30;;
75645;SDS011;64237;52.438;13.240;2023-05-10T04:50:30;7.45;;;3.10;;
75645;SDS011;64237;52.438;13.240;2023-05-10T04:52:56;12.50;;;2.63;;
75645;SDS011;64237;52.438;13.240;2023-05-10T04:55:22;7.25;;;3.15;;
75645;SDS011;64237;52.438;13.240;2023-05-10T04:57:47;7.82;;;3.03;;
75645;SDS011;64237;52.438;13.240;2023-05-10T05:00:12;7.00;;;2.80;;
75645;SDS011;64237;52.438;13.240;2023-05-10T05:02:41;9.25;;;2.55;;
75645;SDS011;64237;52.438;13.240;2023-05-10T05:07:32;7.73;;;2.93;;
75645;SDS011;64237;52.438;13.240;2023-05-10T05:09:58;5.57;;;2.43;;
75645;SDS011;64237;52.438;13.240;2023-05-10T05:12:23;5.35;;;2.65;;
75645;SDS011;64237;52.438;13.240;2023-05-10T05:14:48;7.20;;;2.70;;
75645;SDS011;64237;52.438;13.240;2023-05-10T05:17:14;6.50;;;2.90;;
75645;SDS011;64237;52.438;13.240;2023-05-10T05:19:39;6.40;;;2.50;;
75645;SDS011;64237;52.438;13.240;2023-05-10T05:22:06;6.40;;;2.92;;
75645;SDS011;64237;52.438;13.240;2023-05-10T05:24:35;12.43;;;2.80;;
75645;SDS011;64237;52.438;13.240;2023-05-10T05:27:03;6.15;;;2.88;;
75645;SDS011;64237;52.438;13.240;2023-05-10T05:29:28;6.68;;;2.42;;
75645;SDS011;64237;52.438;13.240;2023-05-10T05:31:53;8.00;;;2.22;;
75645;SDS011;64237;52.438;13.240;2023-05-10T05:34:19;5.30;;;2.33;;
75645;SDS011;64237;52.438;13.240;2023-05-10T05:36:45;7.57;;;2.42;;
75645;SDS011;64237;52.438;13.240;2023-05-10T05:39:10;9.35;;;2.30;;
75645;SDS011;64237;52.438;13.240;2023-05-10T05:41:36;4.97;;;2.30;;
75645;SDS011;64237;52.438;13.240;2023-05-10T05:44:01;5.15;;;2.40;;
75645;SDS011;64237;52.438;13.240;2023-05-10T05:46:26;8.52;;;2.55;;
75645;SDS011;64237;52.438;13.240;2023-05-10T05:48:52;8.38;;;2.50;;
75645;SDS011;64237;52.438;13.240;2023-05-10T05:51:17;8.18;;;2.70;;
75645;SDS011;64237;52.438;13.240;2023-05-10T05:53:43;6.22;;;2.88;;
75645;SDS011;64237;52.438;13.240;2023-05-10T05:56:08;5.13;;;2.40;;
75645;SDS011;64237;52.438;13.240;2023-05-10T05:58:34;5.53;;;2.47;;
75645;SDS011;64237;52.438;13.240;2023-05-10T06:01:00;7.03;;;2.33;;
75645;SDS011;64237;52.438;13.240;2023-05-10T06:03:26;5.88;;;2.47;;
75645;SDS011;64237;52.438;13.240;2023-05-10T06:05:51;5.70;;;2.60;;
75645;SDS011;64237;52.438;13.240;2023-05-10T06:08:17;6.35;;;2.80;;
75645;SDS011;64237;52.438;13.240;2023-05-10T06:10:42;6.38;;;2.40;;
75645;SDS011;64237;52.438;13.240;2023-05-10T06:13:07;6.70;;;2.35;;
75645;SDS011;64237;52.438;13.240;2023-05-10T06:15:33;6.53;;;2.22;;
75645;SDS011;64237;52.438;13.240;2023-05-10T06:17:58;6.10;;;2.22;;
75645;SDS011;64237;52.438;13.240;2023-05-10T06:20:23;4.90;;;2.00;;
75645;SDS011;64237;52.438;13.240;2023-05-10T06:22:49;4.72;;;2.10;;
75645;SDS011;64237;52.438;13.240;2023-05-10T06:25:14;6.63;;;2.20;;
75645;SDS011;64237;52.438;13.240;2023-05-10T06:27:42;7.22;;;2.10;;
75645;SDS011;64237;52.438;13.240;2023-05-10T06:30:09;4.78;;;2.15;;
75645;SDS011;64237;52.438;13.240;2023-05-10T06:32:35;5.53;;;1.90;;
75645;SDS011;64237;52.438;13.240;2023-05-10T06:35:00;7.53;;;1.90;;
75645;SDS011;64237;52.438;13.240;2023-05-10T06:37:25;5.10;;;2.17;;
75645;SDS011;64237;52.438;13.240;2023-05-10T06:39:51;8.77;;;2.08;;
75645;SDS011;64237;52.438;13.240;2023-05-10T06:42:16;4.03;;;1.80;;
75645;SDS011;64237;52.438;13.240;2023-05-10T06:44:41;6.32;;;1.85;;
75645;SDS011;64237;52.438;13.240;2023-05-10T06:47:08;4.32;;;2.00;;
75645;SDS011;64237;52.438;13.240;2023-05-10T06:49:34;6.32;;;2.00;;
75645;SDS011;64237;52.438;13.240;2023-05-10T06:51:59;8.93;;;2.50;;
75645;SDS011;64237;52.438;13.240;2023-05-10T06:54:25;5.20;;;1.73;;
75645;SDS011;64237;52.438;13.240;2023-05-10T06:56:50;7.00;;;2.05;;
75645;SDS011;64237;52.438;13.240;2023-05-10T06:59:15;4.55;;;1.90;;
75645;SDS011;64237;52.438;13.240;2023-05-10T07:01:41;4.53;;;2.00;;
75645;SDS011;64237;52.438;13.240;2023-05-10T07:04:07;4.13;;;1.90;;
75645;SDS011;64237;52.438;13.240;2023-05-10T07:06:34;6.78;;;1.95;;
75645;SDS011;64237;52.438;13.240;2023-05-10T07:09:00;5.07;;;2.15;;
75645;SDS011;64237;52.438;13.240;2023-05-10T07:11:26;5.35;;;2.10;;
75645;SDS011;64237;52.438;13.240;2023-05-10T07:13:51;3.70;;;1.83;;
75645;SDS011;64237;52.438;13.240;2023-05-10T07:16:17;6.78;;;1.92;;
75645;SDS011;64237;52.438;13.240;2023-05-10T07:18:42;5.28;;;1.80;;
75645;SDS011;64237;52.438;13.240;2023-05-10T07:21:07;6.57;;;1.83;;
75645;SDS011;64237;52.438;13.240;2023-05-10T07:23:33;3.33;;;1.73;;
75645;SDS011;64237;52.438;13.240;2023-05-10T07:25:58;7.03;;;1.90;;
75645;SDS011;64237;52.438;13.240;2023-05-10T07:28:24;4.80;;;1.80;;
75645;SDS011;64237;52.438;13.240;2023-05-10T07:30:49;4.07;;;2.10;;
75645;SDS011;64237;52.438;13.240;2023-05-10T07:33:15;5.38;;;1.90;;
75645;SDS011;64237;52.438;13.240;2023-05-10T07:35:41;4.85;;;1.90;;
75645;SDS011;64237;52.438;13.240;2023-05-10T07:38:07;4.22;;;2.13;;
75645;SDS011;64237;52.438;13.240;2023-05-10T07:40:32;3.65;;;1.88;;
75645;SDS011;64237;52.438;13.240;2023-05-10T07:42:58;4.65;;;1.80;;
75645;SDS011;64237;52.438;13.240;2023-05-10T07:45:24;4.55;;;1.83;;
75645;SDS011;64237;52.438;13.240;2023-05-10T07:47:50;5.38;;;1.95;;
75645;SDS011;64237;52.438;13.240;2023-05-10T07:50:15;4.85;;;1.80;;
75645;SDS011;64237;52.438;13.240;2023-05-10T07:52:40;5.07;;;1.90;;
75645;SDS011;64237;52.438;13.240;2023-05-10T07:55:06;4.55;;;1.65;;
75645;SDS011;64237;52.438;13.240;2023-05-10T07:57:33;4.88;;;1.63;;
75645;SDS011;64237;52.438;13.240;2023-05-10T07:59:59;6.93;;;2.00;;
75645;SDS011;64237;52.438;13.240;2023-05-10T08:02:24;5.78;;;2.00;;
75645;SDS011;64237;52.438;13.240;2023-05-10T08:04:50;3.25;;;1.75;;
75645;SDS011;64237;52.438;13.240;2023-05-10T08:07:15;6.53;;;2.13;;
75645;SDS011;64237;52.438;13.240;2023-05-10T08:09:41;6.30;;;2.13;;
75645;SDS011;64237;52.438;13.240;2023-05-10T08:12:06;4.18;;;1.80;;
75645;SDS011;64237;52.438;13.240;2023-05-10T08:14:32;3.80;;;1.63;;
75645;SDS011;64237;52.438;13.240;2023-05-10T08:16:57;6.53;;;1.90;;
75645;SDS011;64237;52.438;13.240;2023-05-10T08:19:23;3.40;;;1.52;;
75645;SDS011;64237;52.438;13.240;2023-05-10T08:21:48;5.32;;;1.80;;
75645;SDS011;64237;52.438;13.240;2023-05-10T08:24:14;5.20;;;2.00;;
75645;SDS011;64237;52.438;13.240;2023-05-10T08:26:40;6.30;;;1.98;;
75645;SDS011;64237;52.438;13.240;2023-05-10T08:29:05;3.85;;;1.73;;
75645;SDS011;64237;52.438;13.240;2023-05-10T08:31:31;3.33;;;1.50;;
75645;SDS011;64237;52.438;13.240;2023-05-10T08:33:56;6.07;;;2.25;;
75645;SDS011;64237;52.438;13.240;2023-05-10T08:36:21;7.03;;;1.98;;
75645;SDS011;64237;52.438;13.240;2023-05-10T08:38:52;5.15;;;1.83;;
75645;SDS011;64237;52.438;13.240;2023-05-10T08:41:19;4.07;;;1.70;;
75645;SDS011;64237;52.438;13.240;2023-05-10T08:43:46;4.43;;;1.75;;
75645;SDS011;64237;52.438;13.240;2023-05-10T08:46:13;4.15;;;1.80;;
75645;SDS011;64237;52.438;13.240;2023-05-10T08:48:43;4.82;;;2.00;;
75645;SDS011;64237;52.438;13.240;2023-05-10T08:51:11;6.72;;;1.90;;
75645;SDS011;64237;52.438;13.240;2023-05-10T08:53:39;3.67;;;1.67;;
75645;SDS011;64237;52.438;13.240;2023-05-10T08:56:04;5.35;;;1.70;;
75645;SDS011;64237;52.438;13.240;2023-05-10T08:58:30;4.75;;;1.95;;
75645;SDS011;64237;52.438;13.240;2023-05-10T09:00:56;7.18;;;2.17;;
75645;SDS011;64237;52.438;13.240;2023-05-10T09:03:22;3.72;;;1.67;;
75645;SDS011;64237;52.438;13.240;2023-05-10T09:05:48;4.13;;;1.90;;
75645;SDS011;64237;52.438;13.240;2023-05-10T09:08:14;3.40;;;1.75;;
75645;SDS011;64237;52.438;13.240;2023-05-10T09:13:09;3.63;;;1.80;;
75645;SDS011;64237;52.438;13.240;2023-05-10T09:15:36;3.78;;;1.80;;
75645;SDS011;64237;52.438;13.240;2023-05-10T09:18:02;3.95;;;1.85;;
75645;SDS011;64237;52.438;13.240;2023-05-10T09:20:27;5.72;;;1.90;;
75645;SDS011;64237;52.438;13.240;2023-05-10T09:22:53;6.38;;;1.95;;
75645;SDS011;64237;52.438;13.240;2023-05-10T09:25:18;3.58;;;1.77;;
75645;SDS011;64237;52.438;13.240;2023-05-10T09:27:45;5.38;;;1.83;;
75645;SDS011;64237;52.438;13.240;2023-05-10T09:30:15;4.43;;;1.90;;
75645;SDS011;64237;52.438;13.240;2023-05-10T09:32:43;4.32;;;2.20;;
75645;SDS011;64237;52.438;13.240;2023-05-10T09:35:10;8.15;;;1.77;;
75645;SDS011;64237;52.438;13.240;2023-05-10T09:37:41;5.38;;;1.90;;
75645;SDS011;64237;52.438;13.240;2023-05-10T09:40:08;5.80;;;2.33;;
75645;SDS011;64237;52.438;13.240;2023-05-10T09:42:37;5.53;;;1.98;;
75645;SDS011;64237;52.438;13.240;2023-05-10T09:45:03;3.85;;;1.60;;
75645;SDS011;64237;52.438;13.240;2023-05-10T09:47:33;4.28;;;1.77;;
75645;SDS011;64237;52.438;13.240;2023-05-10T09:49:59;3.88;;;1.92;;
75645;SDS011;64237;52.438;13.240;2023-05-10T09:52:29;5.80;;;1.92;;
75645;SDS011;64237;52.438;13.240;2023-05-10T09:55:15;5.50;;;1.88;;
75645;SDS011;64237;52.438;13.240;2023-05-10T09:57:41;2.92;;;1.55;;
75645;SDS011;64237;52.438;13.240;2023-05-10T10:00:10;8.15;;;2.00;;
75645;SDS011;64237;52.438;13.240;2023-05-10T10:02:45;6.13;;;2.10;;
75645;SDS011;64237;52.438;13.240;2023-05-10T10:05:12;5.15;;;1.92;;
75645;SDS011;64237;52.438;13.240;2023-05-10T10:07:38;4.45;;;1.90;;
75645;SDS011;64237;52.438;13.240;2023-05-10T10:10:04;3.63;;;1.75;;
75645;SDS011;64237;52.438;13.240;2023-05-10T10:12:30;5.05;;;1.90;;
75645;SDS011;64237;52.438;13.240;2023-05-10T10:14:56;3.75;;;1.60;;
75645;SDS011;64237;52.438;13.240;2023-05-10T10:17:23;4.55;;;1.70;;
75645;SDS011;64237;52.438;13.240;2023-05-10T10:19:52;5.78;;;1.70;;
75645;SDS011;64237;52.438;13.240;2023-05-10T10:22:18;5.20;;;1.77;;
75645;SDS011;64237;52.438;13.240;2023-05-10T10:24:43;5.78;;;1.70;;
75645;SDS011;64237;52.438;13.240;2023-05-10T10:27:19;6.00;;;1.63;;
75645;SDS011;64237;52.438;13.240;2023-05-10T10:29:52;4.22;;;2.05;;
75645;SDS011;64237;52.438;13.240;2023-05-10T10:35:31;5.30;;;1.77;;
75645;SDS011;64237;52.438;13.240;2023-05-10T10:37:57;7.10;;;1.90;;
75645;SDS011;64237;52.438;13.240;2023-05-10T10:40:27;3.42;;;1.90;;
75645;SDS011;64237;52.438;13.240;2023-05-10T10:42:54;6.00;;;1.90;;
75645;SDS011;64237;52.438;13.240;2023-05-10T10:45:20;5.85;;;1.92;;
75645;SDS011;64237;52.438;13.240;2023-05-10T10:47:47;8.57;;;1.80;;
75645;SDS011;64237;52.438;13.240;2023-05-10T10:50:13;7.00;;;2.33;;
75645;SDS011;64237;52.438;13.240;2023-05-10T10:52:42;6.63;;;1.65;;
75645;SDS011;64237;52.438;13.240;2023-05-10T10:55:09;3.45;;;1.92;;
75645;SDS011;64237;52.438;13.240;2023-05-10T11:02:45;5.18;;;1.80;;
75645;SDS011;64237;52.438;13.240;2023-05-10T11:07:54;4.63;;;1.70;;
75645;SDS011;64237;52.438;13.240;2023-05-10T11:10:21;4.38;;;1.60;;
75645;SDS011;64237;52.438;13.240;2023-05-10T11:12:51;4.43;;;1.90;;
75645;SDS011;64237;52.438;13.240;2023-05-10T11:15:17;5.88;;;1.83;;
75645;SDS011;64237;52.438;13.240;2023-05-10T11:17:42;3.20;;;1.52;;
75645;SDS011;64237;52.438;13.240;2023-05-10T11:22:49;7.55;;;2.08;;
75645;SDS011;64237;52.438;13.240;2023-05-10T11:25:26;3.25;;;1.73;;
75645;SDS011;64237;52.438;13.240;2023-05-10T11:27:51;4.22;;;1.73;;
75645;SDS011;64237;52.438;13.240;2023-05-10T11:30:17;4.40;;;1.70;;
75645;SDS011;64237;52.438;13.240;2023-05-10T11:32:43;5.75;;;1.60;;
75645;SDS011;64237;52.438;13.240;2023-05-10T11:35:09;8.00;;;2.05;;
75645;SDS011;64237;52.438;13.240;2023-05-10T11:37:36;6.10;;;1.70;;
75645;SDS011;64237;52.438;13.240;2023-05-10T11:40:06;3.20;;;1.50;;
75645;SDS011;64237;52.438;13.240;2023-05-10T11:45:02;6.90;;;1.80;;
75645;SDS011;64237;52.438;13.240;2023-05-10T11:47:28;5.45;;;2.15;;
75645;SDS011;64237;52.438;13.240;2023-05-10T11:49:53;3.97;;;1.50;;
75645;SDS011;64237;52.438;13.240;2023-05-10T11:52:18;3.47;;;1.70;;
75645;SDS011;64237;52.438;13.240;2023-05-10T11:54:47;4.75;;;1.60;;
75645;SDS011;64237;52.438;13.240;2023-05-10T11:57:17;7.80;;;1.73;;
75645;SDS011;64237;52.438;13.240;2023-05-10T11:59:43;3.30;;;1.67;;
75645;SDS011;64237;52.438;13.240;2023-05-10T12:02:09;3.63;;;1.80;;
75645;SDS011;64237;52.438;13.240;2023-05-10T12:04:35;5.18;;;1.90;;
75645;SDS011;64237;52.438;13.240;2023-05-10T12:07:00;5.95;;;1.60;;
75645;SDS011;64237;52.438;13.240;2023-05-10T12:09:26;8.18;;;1.90;;
75645;SDS011;64237;52.438;13.240;2023-05-10T12:11:54;3.93;;;1.70;;
75645;SDS011;64237;52.438;13.240;2023-05-10T12:14:22;6.50;;;2.05;;
75645;SDS011;64237;52.438;13.240;2023-05-10T12:16:47;3.88;;;1.58;;
75645;SDS011;64237;52.438;13.240;2023-05-10T12:19:18;4.15;;;1.63;;
75645;SDS011;64237;52.438;13.240;2023-05-10T12:21:45;4.03;;;2.28;;
75645;SDS011;64237;52.438;13.240;2023-05-10T12:24:10;5.90;;;1.98;;
75645;SDS011;64237;52.438;13.240;2023-05-10T12:26:36;4.13;;;1.95;;
75645;SDS011;64237;52.438;13.240;2023-05-10T12:29:11;5.65;;;1.60;;
75645;SDS011;64237;52.438;13.240;2023-05-10T12:31:53;3.97;;;1.90;;
75645;SDS011;64237;52.438;13.240;2023-05-10T12:34:26;4.72;;;1.70;;
75645;SDS011;64237;52.438;13.240;2023-05-10T12:36:59;4.53;;;1.60;;
75645;SDS011;64237;52.438;13.240;2023-05-10T12:39:25;5.28;;;1.90;;
75645;SDS011;64237;52.438;13.240;2023-05-10T12:41:50;4.88;;;1.73;;
75645;SDS011;64237;52.438;13.240;2023-05-10T12:44:17;2.83;;;1.65;;
75645;SDS011;64237;52.438;13.240;2023-05-10T12:46:42;5.47;;;2.00;;
75645;SDS011;64237;52.438;13.240;2023-05-10T12:49:08;4.03;;;1.85;;
75645;SDS011;64237;52.438;13.240;2023-05-10T12:51:33;3.80;;;1.95;;
75645;SDS011;64237;52.438;13.240;2023-05-10T12:53:58;4.30;;;1.70;;
75645;SDS011;64237;52.438;13.240;2023-05-10T12:56:24;4.05;;;1.88;;
75645;SDS011;64237;52.438;13.240;2023-05-10T12:58:49;4.00;;;1.55;;
75645;SDS011;64237;52.438;13.240;2023-05-10T13:01:15;3.55;;;1.75;;
75645;SDS011;64237;52.438;13.240;2023-05-10T13:03:40;3.35;;;1.55;;
75645;SDS011;64237;52.438;13.240;2023-05-10T13:06:05;6.22;;;2.10;;
75645;SDS011;64237;52.438;13.240;2023-05-10T13:08:31;6.85;;;2.05;;
75645;SDS011;64237;52.438;13.240;2023-05-10T13:10:58;3.90;;;1.55;;
75645;SDS011;64237;52.438;13.240;2023-05-10T13:13:25;3.53;;;1.70;;
75645;SDS011;64237;52.438;13.240;2023-05-10T13:15:51;5.72;;;2.60;;
75645;SDS011;64237;52.438;13.240;2023-05-10T13:18:16;4.38;;;1.83;;
75645;SDS011;64237;52.438;13.240;2023-05-10T13:20:41;6.75;;;1.90;;
75645;SDS011;64237;52.438;13.240;2023-05-10T13:23:10;4.22;;;2.00;;
75645;SDS011;64237;52.438;13.240;2023-05-10T13:25:36;5.40;;;1.88;;
75645;SDS011;64237;52.438;13.240;2023-05-10T13:28:01;3.60;;;1.80;;
75645;SDS011;64237;52.438;13.240;2023-05-10T13:30:27;4.72;;;1.73;;
75645;SDS011;64237;52.438;13.240;2023-05-10T13:32:53;6.80;;;1.67;;
75645;SDS011;64237;52.438;13.240;2023-05-10T13:35:19;6.35;;;1.98;;
75645;SDS011;64237;52.438;13.240;2023-05-10T13:37:44;4.63;;;1.73;;
75645;SDS011;64237;52.438;13.240;2023-05-10T13:40:09;3.33;;;1.70;;
75645;SDS011;64237;52.438;13.240;2023-05-10T13:42:35;6.78;;;1.92;;
75645;SDS011;64237;52.438;13.240;2023-05-10T13:45:00;2.75;;;1.60;;
75645;SDS011;64237;52.438;13.240;2023-05-10T13:47:26;3.45;;;1.60;;
75645;SDS011;64237;52.438;13.240;2023-05-10T13:49:52;5.13;;;1.88;;
75645;SDS011;64237;52.438;13.240;2023-05-10T13:52:18;5.80;;;1.73;;
75645;SDS011;64237;52.438;13.240;2023-05-10T13:54:43;3.85;;;1.67;;
75645;SDS011;64237;52.438;13.240;2023-05-10T13:57:09;6.67;;;1.90;;
75645;SDS011;64237;52.438;13.240;2023-05-10T13:59:37;6.20;;;1.95;;
75645;SDS011;64237;52.438;13.240;2023-05-10T14:02:03;4.60;;;1.77;;
75645;SDS011;64237;52.438;13.240;2023-05-10T14:04:28;4.57;;;2.10;;
75645;SDS011;64237;52.438;13.240;2023-05-10T14:06:54;3.75;;;1.83;;
75645;SDS011;64237;52.438;13.240;2023-05-10T14:09:20;4.30;;;2.30;;
75645;SDS011;64237;52.438;13.240;2023-05-10T14:11:45;4.90;;;1.83;;
75645;SDS011;64237;52.438;13.240;2023-05-10T14:14:11;5.72;;;1.90;;
75645;SDS011;64237;52.438;13.240;2023-05-10T14:16:37;8.00;;;2.30;;
75645;SDS011;64237;52.438;13.240;2023-05-10T14:19:02;4.55;;;2.00;;
75645;SDS011;64237;52.438;13.240;2023-05-10T14:21:28;5.20;;;2.00;;
75645;SDS011;64237;52.438;13.240;2023-05-10T14:23:56;8.73;;;1.60;;
75645;SDS011;64237;52.438;13.240;2023-05-10T14:26:22;4.07;;;1.90;;
75645;SDS011;64237;52.438;13.240;2023-05-10T14:28:47;3.75;;;1.75;;
75645;SDS011;64237;52.438;13.240;2023-05-10T14:31:13;6.32;;;2.00;;
75645;SDS011;64237;52.438;13.240;2023-05-10T14:33:39;4.72;;;1.98;;
75645;SDS011;64237;52.438;13.240;2023-05-10T14:36:05;5.55;;;2.20;;
75645;SDS011;64237;52.438;13.240;2023-05-10T14:38:31;4.07;;;1.92;;
75645;SDS011;64237;52.438;13.240;2023-05-10T14:40:56;4.47;;;2.15;;
75645;SDS011;64237;52.438;13.240;2023-05-10T14:43:22;4.68;;;1.90;;
75645;SDS011;64237;52.438;13.240;2023-05-10T14:45:48;4.33;;;2.00;;
75645;SDS011;64237;52.438;13.240;2023-05-10T14:48:13;6.13;;;1.90;;
75645;SDS011;64237;52.438;13.240;2023-05-10T14:50:41;4.47;;;1.88;;
75645;SDS011;64237;52.438;13.240;2023-05-10T14:53:06;4.32;;;1.90;;
75645;SDS011;64237;52.438;13.240;2023-05-10T14:55:32;3.88;;;1.65;;
75645;SDS011;64237;52.438;13.240;2023-05-10T14:57:57;5.70;;;1.85;;
75645;SDS011;64237;52.438;13.240;2023-05-10T15:00:23;3.20;;;1.70;;
75645;SDS011;64237;52.438;13.240;2023-05-10T15:02:48;4.40;;;1.90;;
75645;SDS011;64237;52.438;13.240;2023-05-10T15:05:14;4.75;;;1.95;;
75645;SDS011;64237;52.438;13.240;2023-05-10T15:07:40;4.75;;;2.00;;
75645;SDS011;64237;52.438;13.240;2023-05-10T15:10:05;4.45;;;1.65;;
75645;SDS011;64237;52.438;13.240;2023-05-10T15:12:31;3.70;;;1.90;;